sensor_id;sensor_type;location;lat;lon;timestamp;temperature;humidity
17918;DHT22;9084;50.956;3.106;2022-10-15T00:01:13;14.50;99.90
17918;DHT22;9084;50.956;3.106;2022-10-15T00:03:40;14.60;99.90
17918;DHT22;9084;50.956;3.106;2022-10-15T00:06:13;14.60;99.90
17918;DHT22;9084;50.956;3.106;2022-10-15T00:08:39;14.60;99.90
17918;DHT22;9084;50.956;3.106;2022-10-15T00:11:10;14.60;99.90
17918;DHT22;9084;50.956;3.106;2022-10-15T00:13:38;14.60;99.90
17918;DHT22;9084;50.956;3.106;2022-10-15T00:16:10;14.50;99.90
17918;DHT22;9084;50.956;3.106;2022-10-15T00:18:42;14.50;99.90
17918;DHT22;9084;50.956;3.106;2022-10-15T00:21:12;14.50;99.90
17918;DHT22;9084;50.956;3.106;2022-10-15T00:23:41;14.50;99.90
17918;DHT22;9084;50.956;3.106;2022-10-15T00:26:12;14.60;99.90
17918;DHT22;9084;50.956;3.106;2022-10-15T00:28:40;14.60;99.90
17918;DHT22;9084;50.956;3.106;2022-10-15T00:31:08;14.50;99.90
17918;DHT22;9084;50.956;3.106;2022-10-15T00:33:37;14.50;99.90
17918;DHT22;9084;50.956;3.106;2022-10-15T00:36:09;14.50;99.90
17918;DHT22;9084;50.956;3.106;2022-10-15T00:38:35;14.50;99.90
17918;DHT22;9084;50.956;3.106;2022-10-15T00:41:03;14.60;99.90
17918;DHT22;9084;50.956;3.106;2022-10-15T00:43:43;14.60;99.90
17918;DHT22;9084;50.956;3.106;2022-10-15T00:46:32;14.50;99.90
17918;DHT22;9084;50.956;3.106;2022-10-15T00:49:50;14.50;99.90
17918;DHT22;9084;50.956;3.106;2022-10-15T00:51:56;14.60;99.90
17918;DHT22;9084;50.956;3.106;2022-10-15T00:54:24;14.50;99.90
17918;DHT22;9084;50.956;3.106;2022-10-15T00:56:54;14.50;99.90
17918;DHT22;9084;50.956;3.106;2022-10-15T00:59:22;14.50;99.90
17918;DHT22;9084;50.956;3.106;2022-10-15T01:01:52;14.50;99.90
17918;DHT22;9084;50.956;3.106;2022-10-15T01:04:19;14.40;99.90
17918;DHT22;9084;50.956;3.106;2022-10-15T01:06:45;14.40;99.90
17918;DHT22;9084;50.956;3.106;2022-10-15T01:09:12;14.40;99.90
17918;DHT22;9084;50.956;3.106;2022-10-15T01:11:47;14.40;99.90
17918;DHT22;9084;50.956;3.106;2022-10-15T01:22:36;14.20;99.90
17918;DHT22;9084;50.956;3.106;2022-10-15T01:28:03;14.20;99.90
17918;DHT22;9084;50.956;3.106;2022-10-15T01:30:44;14.10;99.90
17918;DHT22;9084;50.956;3.106;2022-10-15T01:35:51;14.10;99.90
17918;DHT22;9084;50.956;3.106;2022-10-15T01:41:09;14.10;99.90
17918;DHT22;9084;50.956;3.106;2022-10-15T01:44:30;14.10;99.90
17918;DHT22;9084;50.956;3.106;2022-10-15T01:46:40;14.10;99.90
17918;DHT22;9084;50.956;3.106;2022-10-15T01:49:13;14.20;99.90
17918;DHT22;9084;50.956;3.106;2022-10-15T01:51:43;14.20;99.90
17918;DHT22;9084;50.956;3.106;2022-10-15T01:54:15;14.20;99.90
17918;DHT22;9084;50.956;3.106;2022-10-15T01:56:44;14.20;99.90
17918;DHT22;9084;50.956;3.106;2022-10-15T01:59:15;14.20;99.90
17918;DHT22;9084;50.956;3.106;2022-10-15T02:01:42;14.20;99.90
17918;DHT22;9084;50.956;3.106;2022-10-15T02:04:23;14.20;99.90
17918;DHT22;9084;50.956;3.106;2022-10-15T02:09:53;14.30;99.90
17918;DHT22;9084;50.956;3.106;2022-10-15T02:15:25;14.30;99.90
17918;DHT22;9084;50.956;3.106;2022-10-15T02:18:27;14.20;99.90
17918;DHT22;9084;50.956;3.106;2022-10-15T02:21:09;14.20;99.90
17918;DHT22;9084;50.956;3.106;2022-10-15T02:23:46;14.20;99.90
17918;DHT22;9084;50.956;3.106;2022-10-15T02:26:19;14.30;99.90
17918;DHT22;9084;50.956;3.106;2022-10-15T02:28:52;14.30;99.90
17918;DHT22;9084;50.956;3.106;2022-10-15T02:31:23;14.30;99.90
17918;DHT22;9084;50.956;3.106;2022-10-15T02:33:52;14.30;99.90
17918;DHT22;9084;50.956;3.106;2022-10-15T02:36:19;14.20;99.90
17918;DHT22;9084;50.956;3.106;2022-10-15T02:38:50;14.10;99.90
17918;DHT22;9084;50.956;3.106;2022-10-15T02:41:16;14.10;99.90
17918;DHT22;9084;50.956;3.106;2022-10-15T02:43:42;14.10;99.90
17918;DHT22;9084;50.956;3.106;2022-10-15T02:46:12;14.10;99.90
17918;DHT22;9084;50.956;3.106;2022-10-15T02:48:41;14.10;99.90
17918;DHT22;9084;50.956;3.106;2022-10-15T02:51:07;14.00;99.90
17918;DHT22;9084;50.956;3.106;2022-10-15T02:53:36;14.00;99.90
17918;DHT22;9084;50.956;3.106;2022-10-15T02:56:05;14.00;99.90
17918;DHT22;9084;50.956;3.106;2022-10-15T02:58:33;14.00;99.90
17918;DHT22;9084;50.956;3.106;2022-10-15T03:01:04;14.00;99.90
17918;DHT22;9084;50.956;3.106;2022-10-15T03:03:30;14.10;99.90
17918;DHT22;9084;50.956;3.106;2022-10-15T03:05:56;14.10;99.90
17918;DHT22;9084;50.956;3.106;2022-10-15T03:08:24;14.20;99.90
17918;DHT22;9084;50.956;3.106;2022-10-15T03:10:52;14.20;99.90
17918;DHT22;9084;50.956;3.106;2022-10-15T03:13:18;14.20;99.90
17918;DHT22;9084;50.956;3.106;2022-10-15T03:15:43;14.20;99.90
17918;DHT22;9084;50.956;3.106;2022-10-15T03:18:12;14.20;99.90
17918;DHT22;9084;50.956;3.106;2022-10-15T03:20:38;14.30;99.90
17918;DHT22;9084;50.956;3.106;2022-10-15T03:23:05;14.30;99.90
17918;DHT22;9084;50.956;3.106;2022-10-15T03:25:35;14.30;99.90
17918;DHT22;9084;50.956;3.106;2022-10-15T03:28:01;14.30;99.90
17918;DHT22;9084;50.956;3.106;2022-10-15T03:30:27;14.30;99.90
17918;DHT22;9084;50.956;3.106;2022-10-15T03:32:53;14.30;99.90
17918;DHT22;9084;50.956;3.106;2022-10-15T03:35:19;14.30;99.90
17918;DHT22;9084;50.956;3.106;2022-10-15T03:37:46;14.30;99.90
17918;DHT22;9084;50.956;3.106;2022-10-15T03:40:15;14.40;99.90
17918;DHT22;9084;50.956;3.106;2022-10-15T03:42:40;14.30;99.90
17918;DHT22;9084;50.956;3.106;2022-10-15T03:45:07;14.30;99.90
17918;DHT22;9084;50.956;3.106;2022-10-15T03:47:33;14.30;99.90
17918;DHT22;9084;50.956;3.106;2022-10-15T03:49:59;14.30;99.90
17918;DHT22;9084;50.956;3.106;2022-10-15T03:52:25;14.30;99.90
17918;DHT22;9084;50.956;3.106;2022-10-15T03:54:53;14.30;99.90
17918;DHT22;9084;50.956;3.106;2022-10-15T03:57:19;14.30;99.90
17918;DHT22;9084;50.956;3.106;2022-10-15T03:59:45;14.30;99.90
17918;DHT22;9084;50.956;3.106;2022-10-15T04:02:13;14.20;99.90
17918;DHT22;9084;50.956;3.106;2022-10-15T04:04:39;14.20;99.90
17918;DHT22;9084;50.956;3.106;2022-10-15T04:07:04;14.20;99.90
17918;DHT22;9084;50.956;3.106;2022-10-15T04:09:33;14.20;99.90
17918;DHT22;9084;50.956;3.106;2022-10-15T04:12:01;14.20;99.90
17918;DHT22;9084;50.956;3.106;2022-10-15T04:14:29;14.20;99.90
17918;DHT22;9084;50.956;3.106;2022-10-15T04:16:57;14.10;99.90
17918;DHT22;9084;50.956;3.106;2022-10-15T04:19:26;14.20;99.90
17918;DHT22;9084;50.956;3.106;2022-10-15T04:21:56;14.20;99.90
17918;DHT22;9084;50.956;3.106;2022-10-15T04:24:27;14.20;99.90
17918;DHT22;9084;50.956;3.106;2022-10-15T04:26:55;14.20;99.90
17918;DHT22;9084;50.956;3.106;2022-10-15T04:29:23;14.20;99.90
17918;DHT22;9084;50.956;3.106;2022-10-15T04:31:49;14.20;99.90
17918;DHT22;9084;50.956;3.106;2022-10-15T04:34:16;14.20;99.90
17918;DHT22;9084;50.956;3.106;2022-10-15T04:36:46;14.20;99.90
17918;DHT22;9084;50.956;3.106;2022-10-15T04:39:14;14.20;99.90
17918;DHT22;9084;50.956;3.106;2022-10-15T04:41:40;14.10;99.90
17918;DHT22;9084;50.956;3.106;2022-10-15T04:44:06;14.10;99.90
17918;DHT22;9084;50.956;3.106;2022-10-15T04:46:34;14.10;99.90
17918;DHT22;9084;50.956;3.106;2022-10-15T04:49:00;14.00;99.90
17918;DHT22;9084;50.956;3.106;2022-10-15T04:51:26;13.90;99.90
17918;DHT22;9084;50.956;3.106;2022-10-15T04:53:52;13.90;99.90
17918;DHT22;9084;50.956;3.106;2022-10-15T04:56:19;13.80;99.90
17918;DHT22;9084;50.956;3.106;2022-10-15T04:58:49;13.80;99.90
17918;DHT22;9084;50.956;3.106;2022-10-15T05:01:18;13.80;99.90
17918;DHT22;9084;50.956;3.106;2022-10-15T05:03:47;13.80;99.90
17918;DHT22;9084;50.956;3.106;2022-10-15T05:06:19;13.90;99.90
17918;DHT22;9084;50.956;3.106;2022-10-15T05:08:45;13.90;99.90
17918;DHT22;9084;50.956;3.106;2022-10-15T05:11:23;13.90;99.90
17918;DHT22;9084;50.956;3.106;2022-10-15T05:13:50;14.00;99.90
17918;DHT22;9084;50.956;3.106;2022-10-15T05:16:21;14.00;99.90
17918;DHT22;9084;50.956;3.106;2022-10-15T05:18:50;14.00;99.90
17918;DHT22;9084;50.956;3.106;2022-10-15T05:21:19;14.00;99.90
17918;DHT22;9084;50.956;3.106;2022-10-15T05:23:50;14.00;99.90
17918;DHT22;9084;50.956;3.106;2022-10-15T05:26:19;14.00;99.90
17918;DHT22;9084;50.956;3.106;2022-10-15T05:28:46;14.00;99.90
17918;DHT22;9084;50.956;3.106;2022-10-15T05:31:15;14.10;99.90
17918;DHT22;9084;50.956;3.106;2022-10-15T05:33:44;14.10;99.90
17918;DHT22;9084;50.956;3.106;2022-10-15T05:36:17;14.00;99.90
17918;DHT22;9084;50.956;3.106;2022-10-15T05:38:55;14.10;99.90
17918;DHT22;9084;50.956;3.106;2022-10-15T05:41:22;14.10;99.90
17918;DHT22;9084;50.956;3.106;2022-10-15T05:43:52;14.10;99.90
17918;DHT22;9084;50.956;3.106;2022-10-15T05:46:19;14.10;99.90
17918;DHT22;9084;50.956;3.106;2022-10-15T05:48:55;14.10;99.90
17918;DHT22;9084;50.956;3.106;2022-10-15T05:51:24;14.10;99.90
17918;DHT22;9084;50.956;3.106;2022-10-15T05:53:54;14.20;99.90
17918;DHT22;9084;50.956;3.106;2022-10-15T05:56:21;14.20;99.90
17918;DHT22;9084;50.956;3.106;2022-10-15T05:58:47;14.20;99.90
17918;DHT22;9084;50.956;3.106;2022-10-15T06:01:13;14.20;99.90
17918;DHT22;9084;50.956;3.106;2022-10-15T06:03:40;14.20;99.90
17918;DHT22;9084;50.956;3.106;2022-10-15T06:06:20;14.20;99.90
17918;DHT22;9084;50.956;3.106;2022-10-15T06:08:49;14.20;99.90
17918;DHT22;9084;50.956;3.106;2022-10-15T06:11:20;14.30;99.90
17918;DHT22;9084;50.956;3.106;2022-10-15T06:13:49;14.30;99.90
17918;DHT22;9084;50.956;3.106;2022-10-15T06:16:19;14.30;99.90
17918;DHT22;9084;50.956;3.106;2022-10-15T06:18:47;14.30;99.90
17918;DHT22;9084;50.956;3.106;2022-10-15T06:21:13;14.30;99.90
17918;DHT22;9084;50.956;3.106;2022-10-15T06:23:39;14.30;99.90
17918;DHT22;9084;50.956;3.106;2022-10-15T06:26:07;14.30;99.90
17918;DHT22;9084;50.956;3.106;2022-10-15T06:28:34;14.30;99.90
17918;DHT22;9084;50.956;3.106;2022-10-15T06:31:03;14.40;99.90
17918;DHT22;9084;50.956;3.106;2022-10-15T06:33:33;14.40;99.90
17918;DHT22;9084;50.956;3.106;2022-10-15T06:36:03;14.40;99.90
17918;DHT22;9084;50.956;3.106;2022-10-15T06:38:32;14.40;99.90
17918;DHT22;9084;50.956;3.106;2022-10-15T06:40:59;14.40;99.90
17918;DHT22;9084;50.956;3.106;2022-10-15T06:43:25;14.40;99.90
17918;DHT22;9084;50.956;3.106;2022-10-15T06:45:51;14.50;99.90
17918;DHT22;9084;50.956;3.106;2022-10-15T06:48:17;14.50;99.90
17918;DHT22;9084;50.956;3.106;2022-10-15T06:50:45;14.50;99.90
17918;DHT22;9084;50.956;3.106;2022-10-15T06:53:11;14.50;99.90
17918;DHT22;9084;50.956;3.106;2022-10-15T06:55:37;14.50;99.90
17918;DHT22;9084;50.956;3.106;2022-10-15T06:58:04;14.50;99.90
17918;DHT22;9084;50.956;3.106;2022-10-15T07:00:29;14.50;99.90
17918;DHT22;9084;50.956;3.106;2022-10-15T07:03:01;14.50;99.90
17918;DHT22;9084;50.956;3.106;2022-10-15T07:05:26;14.50;99.90
17918;DHT22;9084;50.956;3.106;2022-10-15T07:07:53;14.50;99.90
17918;DHT22;9084;50.956;3.106;2022-10-15T07:10:20;14.50;99.90
17918;DHT22;9084;50.956;3.106;2022-10-15T07:12:47;14.60;99.90
17918;DHT22;9084;50.956;3.106;2022-10-15T07:15:16;14.60;99.90
17918;DHT22;9084;50.956;3.106;2022-10-15T07:17:49;14.60;99.90
17918;DHT22;9084;50.956;3.106;2022-10-15T07:20:16;14.60;99.90
17918;DHT22;9084;50.956;3.106;2022-10-15T07:22:44;14.60;99.90
17918;DHT22;9084;50.956;3.106;2022-10-15T07:25:11;14.70;99.90
17918;DHT22;9084;50.956;3.106;2022-10-15T07:27:38;14.70;99.90
17918;DHT22;9084;50.956;3.106;2022-10-15T07:30:07;14.70;99.90
17918;DHT22;9084;50.956;3.106;2022-10-15T07:32:34;14.70;99.90
17918;DHT22;9084;50.956;3.106;2022-10-15T07:35:04;14.70;99.90
17918;DHT22;9084;50.956;3.106;2022-10-15T07:37:30;14.80;99.90
17918;DHT22;9084;50.956;3.106;2022-10-15T07:39:59;14.80;99.90
17918;DHT22;9084;50.956;3.106;2022-10-15T07:42:25;14.80;99.90
17918;DHT22;9084;50.956;3.106;2022-10-15T07:44:54;14.80;99.90
17918;DHT22;9084;50.956;3.106;2022-10-15T07:47:20;14.90;99.90
17918;DHT22;9084;50.956;3.106;2022-10-15T07:49:45;14.90;99.90
17918;DHT22;9084;50.956;3.106;2022-10-15T07:52:11;14.90;99.90
17918;DHT22;9084;50.956;3.106;2022-10-15T07:54:39;14.90;99.90
17918;DHT22;9084;50.956;3.106;2022-10-15T07:57:05;15.00;99.90
17918;DHT22;9084;50.956;3.106;2022-10-15T07:59:34;15.00;99.90
17918;DHT22;9084;50.956;3.106;2022-10-15T08:02:00;15.10;99.90
17918;DHT22;9084;50.956;3.106;2022-10-15T08:04:26;15.20;99.90
17918;DHT22;9084;50.956;3.106;2022-10-15T08:06:51;15.30;99.90
17918;DHT22;9084;50.956;3.106;2022-10-15T08:09:17;15.40;99.90
17918;DHT22;9084;50.956;3.106;2022-10-15T08:11:43;15.50;99.90
17918;DHT22;9084;50.956;3.106;2022-10-15T08:14:09;15.50;99.90
17918;DHT22;9084;50.956;3.106;2022-10-15T08:16:35;15.50;99.90
17918;DHT22;9084;50.956;3.106;2022-10-15T08:19:00;15.50;99.90
17918;DHT22;9084;50.956;3.106;2022-10-15T08:21:28;15.50;99.90
17918;DHT22;9084;50.956;3.106;2022-10-15T08:23:54;15.50;99.90
17918;DHT22;9084;50.956;3.106;2022-10-15T08:26:23;15.60;99.90
17918;DHT22;9084;50.956;3.106;2022-10-15T08:28:50;15.60;99.90
17918;DHT22;9084;50.956;3.106;2022-10-15T08:31:18;15.60;99.90
17918;DHT22;9084;50.956;3.106;2022-10-15T08:33:44;15.60;99.90
17918;DHT22;9084;50.956;3.106;2022-10-15T08:36:12;15.70;99.90
17918;DHT22;9084;50.956;3.106;2022-10-15T08:38:40;15.80;99.90
17918;DHT22;9084;50.956;3.106;2022-10-15T08:41:28;15.90;99.90
17918;DHT22;9084;50.956;3.106;2022-10-15T08:43:58;16.00;99.90
17918;DHT22;9084;50.956;3.106;2022-10-15T08:48:53;16.10;99.90
17918;DHT22;9084;50.956;3.106;2022-10-15T08:51:40;16.20;99.90
17918;DHT22;9084;50.956;3.106;2022-10-15T08:54:12;16.30;99.90
17918;DHT22;9084;50.956;3.106;2022-10-15T08:56:44;16.30;99.90
17918;DHT22;9084;50.956;3.106;2022-10-15T09:02:06;16.60;99.90
17918;DHT22;9084;50.956;3.106;2022-10-15T09:07:24;16.80;99.90
17918;DHT22;9084;50.956;3.106;2022-10-15T09:10:17;16.90;99.90
17918;DHT22;9084;50.956;3.106;2022-10-15T09:15:26;17.20;99.90
17918;DHT22;9084;50.956;3.106;2022-10-15T09:17:55;17.30;99.90
17918;DHT22;9084;50.956;3.106;2022-10-15T09:20:29;17.40;99.90
17918;DHT22;9084;50.956;3.106;2022-10-15T09:22:56;17.50;99.90
17918;DHT22;9084;50.956;3.106;2022-10-15T09:25:33;17.50;99.90
17918;DHT22;9084;50.956;3.106;2022-10-15T09:28:01;17.50;99.90
17918;DHT22;9084;50.956;3.106;2022-10-15T09:30:48;17.60;99.90
17918;DHT22;9084;50.956;3.106;2022-10-15T09:35:50;17.80;99.90
17918;DHT22;9084;50.956;3.106;2022-10-15T09:41:16;17.80;99.90
17918;DHT22;9084;50.956;3.106;2022-10-15T09:43:47;17.80;99.90
17918;DHT22;9084;50.956;3.106;2022-10-15T09:46:14;17.70;99.90
17918;DHT22;9084;50.956;3.106;2022-10-15T09:57:05;17.80;99.90
17918;DHT22;9084;50.956;3.106;2022-10-15T09:59:32;17.90;99.90
17918;DHT22;9084;50.956;3.106;2022-10-15T10:02:03;18.00;99.90
17918;DHT22;9084;50.956;3.106;2022-10-15T10:04:33;18.20;99.90
17918;DHT22;9084;50.956;3.106;2022-10-15T10:07:05;18.20;99.90
17918;DHT22;9084;50.956;3.106;2022-10-15T10:09:50;18.20;99.90
17918;DHT22;9084;50.956;3.106;2022-10-15T10:12:26;18.20;99.90
17918;DHT22;9084;50.956;3.106;2022-10-15T10:14:58;18.30;99.90
17918;DHT22;9084;50.956;3.106;2022-10-15T10:17:26;18.40;99.90
17918;DHT22;9084;50.956;3.106;2022-10-15T10:22:53;18.70;99.90
17918;DHT22;9084;50.956;3.106;2022-10-15T10:25:29;18.70;99.90
17918;DHT22;9084;50.956;3.106;2022-10-15T10:35:54;17.80;99.90
17918;DHT22;9084;50.956;3.106;2022-10-15T10:38:24;17.30;99.90
17918;DHT22;9084;50.956;3.106;2022-10-15T10:41:09;16.90;99.90
17918;DHT22;9084;50.956;3.106;2022-10-15T10:43:40;16.60;99.90
17918;DHT22;9084;50.956;3.106;2022-10-15T10:46:20;16.30;99.90
17918;DHT22;9084;50.956;3.106;2022-10-15T10:48:51;16.20;99.90
17918;DHT22;9084;50.956;3.106;2022-10-15T10:51:26;16.20;99.90
17918;DHT22;9084;50.956;3.106;2022-10-15T10:54:03;16.20;99.90
17918;DHT22;9084;50.956;3.106;2022-10-15T10:56:39;16.40;99.90
17918;DHT22;9084;50.956;3.106;2022-10-15T11:01:47;16.80;99.90
17918;DHT22;9084;50.956;3.106;2022-10-15T11:04:27;17.10;99.90
17918;DHT22;9084;50.956;3.106;2022-10-15T11:09:57;17.20;99.90
17918;DHT22;9084;50.956;3.106;2022-10-15T11:15:28;17.40;99.90
17918;DHT22;9084;50.956;3.106;2022-10-15T11:18:13;17.50;99.90
17918;DHT22;9084;50.956;3.106;2022-10-15T11:20:48;17.50;99.90
17918;DHT22;9084;50.956;3.106;2022-10-15T11:23:36;17.40;99.90
17918;DHT22;9084;50.956;3.106;2022-10-15T11:29:00;17.40;99.90
17918;DHT22;9084;50.956;3.106;2022-10-15T11:39:38;17.70;99.90
17918;DHT22;9084;50.956;3.106;2022-10-15T11:47:53;17.90;99.90
17918;DHT22;9084;50.956;3.106;2022-10-15T11:50:36;17.90;92.20
17918;DHT22;9084;50.956;3.106;2022-10-15T11:56:09;17.90;81.70
17918;DHT22;9084;50.956;3.106;2022-10-15T11:58:43;17.90;92.20
17918;DHT22;9084;50.956;3.106;2022-10-15T12:01:32;17.90;96.00
17918;DHT22;9084;50.956;3.106;2022-10-15T12:04:09;17.90;97.30
17918;DHT22;9084;50.956;3.106;2022-10-15T12:06:46;17.90;98.70
17918;DHT22;9084;50.956;3.106;2022-10-15T12:09:29;17.90;95.80
17918;DHT22;9084;50.956;3.106;2022-10-15T12:12:11;18.00;94.60
17918;DHT22;9084;50.956;3.106;2022-10-15T12:20:17;18.30;95.90
17918;DHT22;9084;50.956;3.106;2022-10-15T12:23:02;18.40;92.00
17918;DHT22;9084;50.956;3.106;2022-10-15T12:28:16;18.50;77.60
17918;DHT22;9084;50.956;3.106;2022-10-15T12:36:02;18.80;60.80
17918;DHT22;9084;50.956;3.106;2022-10-15T12:38:38;18.70;38.90
17918;DHT22;9084;50.956;3.106;2022-10-15T12:41:12;18.70;53.50
17918;DHT22;9084;50.956;3.106;2022-10-15T12:43:42;18.60;37.00
17918;DHT22;9084;50.956;3.106;2022-10-15T12:46:09;18.60;47.70
17918;DHT22;9084;50.956;3.106;2022-10-15T12:48:38;18.60;42.10
17918;DHT22;9084;50.956;3.106;2022-10-15T12:53:47;18.60;47.10
17918;DHT22;9084;50.956;3.106;2022-10-15T12:58:51;18.60;38.60
17918;DHT22;9084;50.956;3.106;2022-10-15T13:06:31;18.70;23.90
17918;DHT22;9084;50.956;3.106;2022-10-15T13:11:47;18.50;25.10
17918;DHT22;9084;50.956;3.106;2022-10-15T13:16:46;18.20;31.00
17918;DHT22;9084;50.956;3.106;2022-10-15T13:19:20;18.20;28.20
17918;DHT22;9084;50.956;3.106;2022-10-15T13:21:54;18.10;33.50
17918;DHT22;9084;50.956;3.106;2022-10-15T13:24:23;18.10;37.60
17918;DHT22;9084;50.956;3.106;2022-10-15T13:26:52;18.10;31.10
17918;DHT22;9084;50.956;3.106;2022-10-15T13:29:26;18.10;32.80
17918;DHT22;9084;50.956;3.106;2022-10-15T13:31:56;18.00;13.70
17918;DHT22;9084;50.956;3.106;2022-10-15T13:34:24;18.00;1.00
17918;DHT22;9084;50.956;3.106;2022-10-15T13:36:54;18.00;1.00
17918;DHT22;9084;50.956;3.106;2022-10-15T13:39:40;18.00;1.00
17918;DHT22;9084;50.956;3.106;2022-10-15T13:42:19;18.10;1.00
17918;DHT22;9084;50.956;3.106;2022-10-15T13:45:00;18.20;1.00
17918;DHT22;9084;50.956;3.106;2022-10-15T13:47:40;18.30;1.00
17918;DHT22;9084;50.956;3.106;2022-10-15T13:50:12;18.30;1.00
17918;DHT22;9084;50.956;3.106;2022-10-15T13:52:45;18.20;1.00
17918;DHT22;9084;50.956;3.106;2022-10-15T13:55:20;18.20;1.00
17918;DHT22;9084;50.956;3.106;2022-10-15T13:57:50;18.20;1.00
17918;DHT22;9084;50.956;3.106;2022-10-15T14:00:23;18.10;1.00
17918;DHT22;9084;50.956;3.106;2022-10-15T14:03:21;18.10;1.00
17918;DHT22;9084;50.956;3.106;2022-10-15T14:05:52;18.10;1.00
17918;DHT22;9084;50.956;3.106;2022-10-15T14:08:31;18.10;1.00
17918;DHT22;9084;50.956;3.106;2022-10-15T14:10:58;18.10;1.00
17918;DHT22;9084;50.956;3.106;2022-10-15T14:13:25;18.10;1.00
17918;DHT22;9084;50.956;3.106;2022-10-15T14:16:14;18.00;1.00
17918;DHT22;9084;50.956;3.106;2022-10-15T14:18:47;18.10;1.00
17918;DHT22;9084;50.956;3.106;2022-10-15T14:21:16;18.00;1.00
17918;DHT22;9084;50.956;3.106;2022-10-15T14:23:44;17.90;1.00
17918;DHT22;9084;50.956;3.106;2022-10-15T14:26:11;17.80;1.00
17918;DHT22;9084;50.956;3.106;2022-10-15T14:28:41;17.80;1.00
17918;DHT22;9084;50.956;3.106;2022-10-15T14:31:45;17.80;1.00
17918;DHT22;9084;50.956;3.106;2022-10-15T14:36:56;17.80;1.00
17918;DHT22;9084;50.956;3.106;2022-10-15T14:39:33;17.80;1.00
17918;DHT22;9084;50.956;3.106;2022-10-15T14:42:05;17.70;1.00
17918;DHT22;9084;50.956;3.106;2022-10-15T14:44:47;17.70;1.00
17918;DHT22;9084;50.956;3.106;2022-10-15T14:47:25;17.60;1.00
17918;DHT22;9084;50.956;3.106;2022-10-15T14:49:56;17.60;1.00
17918;DHT22;9084;50.956;3.106;2022-10-15T14:52:24;17.50;1.00
17918;DHT22;9084;50.956;3.106;2022-10-15T14:55:02;17.40;1.00
17918;DHT22;9084;50.956;3.106;2022-10-15T14:57:36;17.40;1.00
17918;DHT22;9084;50.956;3.106;2022-10-15T15:00:09;17.40;1.00
17918;DHT22;9084;50.956;3.106;2022-10-15T15:02:39;17.30;1.00
17918;DHT22;9084;50.956;3.106;2022-10-15T15:07:30;17.30;1.00
17918;DHT22;9084;50.956;3.106;2022-10-15T15:09:56;17.30;1.00
17918;DHT22;9084;50.956;3.106;2022-10-15T15:12:24;17.30;1.00
17918;DHT22;9084;50.956;3.106;2022-10-15T15:14:50;17.30;1.00
17918;DHT22;9084;50.956;3.106;2022-10-15T15:17:21;17.30;2.80
17918;DHT22;9084;50.956;3.106;2022-10-15T15:19:50;17.30;1.50
17918;DHT22;9084;50.956;3.106;2022-10-15T15:22:27;17.20;3.90
17918;DHT22;9084;50.956;3.106;2022-10-15T15:24:55;17.20;1.00
17918;DHT22;9084;50.956;3.106;2022-10-15T15:27:27;17.10;1.50
17918;DHT22;9084;50.956;3.106;2022-10-15T15:29:53;17.10;1.00
17918;DHT22;9084;50.956;3.106;2022-10-15T15:32:20;17.10;1.00
17918;DHT22;9084;50.956;3.106;2022-10-15T15:34:50;17.10;1.00
17918;DHT22;9084;50.956;3.106;2022-10-15T15:37:22;17.10;1.00
17918;DHT22;9084;50.956;3.106;2022-10-15T15:39:51;17.20;1.00
17918;DHT22;9084;50.956;3.106;2022-10-15T15:42:20;17.20;1.00
17918;DHT22;9084;50.956;3.106;2022-10-15T15:44:47;17.20;1.00
17918;DHT22;9084;50.956;3.106;2022-10-15T15:47:16;17.20;1.00
17918;DHT22;9084;50.956;3.106;2022-10-15T15:49:41;17.20;1.00
17918;DHT22;9084;50.956;3.106;2022-10-15T15:52:10;17.10;1.00
17918;DHT22;9084;50.956;3.106;2022-10-15T15:54:39;17.10;1.00
17918;DHT22;9084;50.956;3.106;2022-10-15T15:57:08;17.10;1.00
17918;DHT22;9084;50.956;3.106;2022-10-15T15:59:36;17.10;1.00
17918;DHT22;9084;50.956;3.106;2022-10-15T16:02:05;17.10;1.00
17918;DHT22;9084;50.956;3.106;2022-10-15T16:04:33;17.00;1.00
17918;DHT22;9084;50.956;3.106;2022-10-15T16:07:01;17.00;1.00
17918;DHT22;9084;50.956;3.106;2022-10-15T16:09:32;16.90;6.70
17918;DHT22;9084;50.956;3.106;2022-10-15T16:12:02;16.80;7.40
17918;DHT22;9084;50.956;3.106;2022-10-15T16:14:30;16.70;14.00
17918;DHT22;9084;50.956;3.106;2022-10-15T16:16:57;16.70;15.80
17918;DHT22;9084;50.956;3.106;2022-10-15T16:19:23;16.60;19.80
17918;DHT22;9084;50.956;3.106;2022-10-15T16:21:50;16.60;22.30
17918;DHT22;9084;50.956;3.106;2022-10-15T16:24:15;16.50;22.80
17918;DHT22;9084;50.956;3.106;2022-10-15T16:26:44;16.50;27.40
17918;DHT22;9084;50.956;3.106;2022-10-15T16:29:09;16.40;28.40
17918;DHT22;9084;50.956;3.106;2022-10-15T16:31:38;16.40;35.60
17918;DHT22;9084;50.956;3.106;2022-10-15T16:34:04;16.30;35.20
17918;DHT22;9084;50.956;3.106;2022-10-15T16:36:31;16.20;40.20
17918;DHT22;9084;50.956;3.106;2022-10-15T16:38:57;16.20;46.70
17918;DHT22;9084;50.956;3.106;2022-10-15T16:41:24;16.10;51.10
17918;DHT22;9084;50.956;3.106;2022-10-15T16:43:49;16.00;55.60
17918;DHT22;9084;50.956;3.106;2022-10-15T16:46:16;16.00;56.50
17918;DHT22;9084;50.956;3.106;2022-10-15T16:48:42;16.00;48.60
17918;DHT22;9084;50.956;3.106;2022-10-15T16:51:11;15.90;50.30
17918;DHT22;9084;50.956;3.106;2022-10-15T16:53:38;15.90;48.50
17918;DHT22;9084;50.956;3.106;2022-10-15T16:56:07;15.90;54.30
17918;DHT22;9084;50.956;3.106;2022-10-15T16:58:35;15.80;62.60
17918;DHT22;9084;50.956;3.106;2022-10-15T17:01:07;15.80;70.50
17918;DHT22;9084;50.956;3.106;2022-10-15T17:03:35;15.70;80.60
17918;DHT22;9084;50.956;3.106;2022-10-15T17:06:07;15.70;88.80
17918;DHT22;9084;50.956;3.106;2022-10-15T17:11:11;15.60;90.60
17918;DHT22;9084;50.956;3.106;2022-10-15T17:13:37;15.60;90.80
17918;DHT22;9084;50.956;3.106;2022-10-15T17:16:28;15.70;85.20
17918;DHT22;9084;50.956;3.106;2022-10-15T17:18:55;15.80;69.40
17918;DHT22;9084;50.956;3.106;2022-10-15T17:21:23;15.80;57.20
17918;DHT22;9084;50.956;3.106;2022-10-15T17:23:54;15.80;52.20
17918;DHT22;9084;50.956;3.106;2022-10-15T17:26:24;15.90;52.20
17918;DHT22;9084;50.956;3.106;2022-10-15T17:28:53;15.90;60.50
17918;DHT22;9084;50.956;3.106;2022-10-15T17:31:21;15.80;61.20
17918;DHT22;9084;50.956;3.106;2022-10-15T17:33:48;15.80;57.60
17918;DHT22;9084;50.956;3.106;2022-10-15T17:36:19;15.80;57.60
17918;DHT22;9084;50.956;3.106;2022-10-15T17:38:46;15.80;59.50
17918;DHT22;9084;50.956;3.106;2022-10-15T17:41:20;15.80;65.60
17918;DHT22;9084;50.956;3.106;2022-10-15T17:43:49;15.70;67.10
17918;DHT22;9084;50.956;3.106;2022-10-15T17:46:20;15.70;71.30
17918;DHT22;9084;50.956;3.106;2022-10-15T17:48:47;15.60;77.30
17918;DHT22;9084;50.956;3.106;2022-10-15T17:51:18;15.50;81.90
17918;DHT22;9084;50.956;3.106;2022-10-15T17:53:46;15.40;90.40
17918;DHT22;9084;50.956;3.106;2022-10-15T17:56:34;15.30;94.10
17918;DHT22;9084;50.956;3.106;2022-10-15T17:59:03;15.30;92.00
17918;DHT22;9084;50.956;3.106;2022-10-15T18:01:38;15.20;90.20
17918;DHT22;9084;50.956;3.106;2022-10-15T18:04:04;15.20;89.40
17918;DHT22;9084;50.956;3.106;2022-10-15T18:06:31;15.10;90.20
17918;DHT22;9084;50.956;3.106;2022-10-15T18:08:58;15.10;94.30
17918;DHT22;9084;50.956;3.106;2022-10-15T18:11:30;15.00;92.50